Time;durP1;ratioP1;P1;durP2;ratioP2;P2;SDS_P1;SDS_P2;PMS_P1;PMS_P2;Temp;Humidity;BMP_temperature;BMP_pressure;BME280_temperature;BME280_humidity;BME280_pressure;Samples;Min_cycle;Max_cycle;Signal;HPM_P1;HPM_P2
2023/09/01 00:00:12;;;;;;;7.70;2.28;;;12.60;99.90;;;;;;5028348;28;20041;-88
2023/09/01 00:02:39;;;;;;;7.43;2.17;;;12.60;99.90;;;;;;5052385;28;20045;-88
2023/09/01 00:05:05;;;;;;;6.63;2.20;;;12.60;99.90;;;;;;5021105;28;20067;-88
2023/09/01 00:07:31;;;;;;;7.68;2.45;;;12.60;99.90;;;;;;5055615;28;20105;-88
2023/09/01 00:09:57;;;;;;;7.03;2.38;;;12.60;99.90;;;;;;5034893;28;20049;-88
2023/09/01 00:12:23;;;;;;;6.03;2.00;;;12.60;99.90;;;;;;5034610;28;20092;-87
2023/09/01 00:14:48;;;;;;;6.60;2.40;;;12.60;99.90;;;;;;5027908;28;20040;-88
2023/09/01 00:17:14;;;;;;;6.78;2.20;;;12.60;99.90;;;;;;5033972;28;20043;-88
2023/09/01 00:19:40;;;;;;;7.32;2.17;;;12.60;99.90;;;;;;5051643;28;20571;-88
2023/09/01 00:22:06;;;;;;;6.00;2.20;;;12.60;99.90;;;;;;5052007;28;20123;-88
2023/09/01 00:24:33;;;;;;;6.90;1.90;;;12.60;99.90;;;;;;5026300;28;20097;-88
2023/09/01 00:27:00;;;;;;;6.07;2.05;;;12.60;99.90;;;;;;5055610;28;20420;-87
2023/09/01 00:29:26;;;;;;;5.85;1.85;;;12.60;99.90;;;;;;5052622;28;20060;-88
2023/09/01 00:31:52;;;;;;;6.28;2.10;;;12.60;99.90;;;;;;5035971;28;20056;-88
2023/09/01 00:34:17;;;;;;;6.97;2.40;;;12.60;99.90;;;;;;5048371;28;20289;-88
2023/09/01 00:36:43;;;;;;;6.78;2.20;;;12.60;99.90;;;;;;5037286;28;20129;-88
2023/09/01 00:39:10;;;;;;;5.25;1.92;;;12.60;99.90;;;;;;5055305;28;20032;-88
2023/09/01 00:41:36;;;;;;;6.03;2.00;;;12.50;99.90;;;;;;5036138;28;20044;-88
2023/09/01 00:44:03;;;;;;;8.73;2.60;;;12.50;99.90;;;;;;5035475;28;20375;-88
2023/09/01 00:46:31;;;;;;;5.97;1.95;;;12.50;99.90;;;;;;5049455;28;20138;-88
2023/09/01 00:48:58;;;;;;;6.32;1.90;;;12.50;99.90;;;;;;5055398;28;20485;-88
2023/09/01 00:51:28;;;;;;;6.40;2.40;;;12.50;99.90;;;;;;5055122;28;20032;-88
2023/09/01 00:53:55;;;;;;;5.78;2.00;;;12.50;99.90;;;;;;5035108;28;20040;-88
2023/09/01 00:56:21;;;;;;;5.90;2.10;;;12.40;99.90;;;;;;5028929;28;20121;-88
2023/09/01 00:58:47;;;;;;;7.38;2.03;;;12.40;99.90;;;;;;5058454;28;20036;-88
2023/09/01 01:01:12;;;;;;;5.70;2.00;;;12.40;99.90;;;;;;5034677;28;20036;-88
2023/09/01 01:03:40;;;;;;;5.10;1.83;;;12.40;99.90;;;;;;5050934;28;20055;-88
2023/09/01 01:06:24;;;;;;;6.40;2.08;;;12.40;99.90;;;;;;5035739;28;20057;-87
2023/09/01 01:09:08;;;;;;;6.63;2.10;;;12.40;99.90;;;;;;5042294;28;20123;-88
2023/09/01 01:11:40;;;;;;;6.10;2.00;;;12.30;99.90;;;;;;5053629;28;20502;-88
2023/09/01 01:14:11;;;;;;;6.47;2.10;;;12.30;99.90;;;;;;5051454;28;20037;-88
2023/09/01 01:16:37;;;;;;;5.78;1.88;;;12.30;99.90;;;;;;5068484;28;20278;-88
2023/09/01 01:19:33;;;;;;;5.20;1.80;;;12.20;99.90;;;;;;5054898;28;20544;-88
2023/09/01 01:22:00;;;;;;;6.72;2.25;;;12.20;99.90;;;;;;5070714;28;20059;-88
2023/09/01 01:24:26;;;;;;;6.35;2.20;;;12.20;99.90;;;;;;5034894;28;20141;-88
2023/09/01 01:26:53;;;;;;;6.68;2.13;;;12.20;99.90;;;;;;5034391;28;20123;-88
2023/09/01 01:29:19;;;;;;;6.38;2.20;;;12.20;99.90;;;;;;5064105;28;20602;-88
2023/09/01 01:31:44;;;;;;;5.78;2.10;;;12.20;99.90;;;;;;5051029;28;20120;-88
2023/09/01 01:34:19;;;;;;;7.60;2.10;;;12.20;99.90;;;;;;5043205;28;20044;-87
2023/09/01 01:37:04;;;;;;;7.03;2.20;;;12.20;99.90;;;;;;5070640;28;20036;-88
2023/09/01 01:39:33;;;;;;;5.20;2.00;;;12.20;99.90;;;;;;5055010;28;20036;-88
2023/09/01 01:42:07;;;;;;;6.75;2.30;;;12.10;99.90;;;;;;5034336;28;20044;-88
2023/09/01 01:44:39;;;;;;;6.55;2.15;;;12.10;99.90;;;;;;5049098;28;20064;-88
2023/09/01 01:47:09;;;;;;;6.63;1.90;;;12.10;99.90;;;;;;5071337;28;20081;-88
2023/09/01 01:49:34;;;;;;;7.72;2.13;;;12.10;99.90;;;;;;5052014;28;20546;-88
2023/09/01 01:52:01;;;;;;;6.85;2.30;;;12.00;99.90;;;;;;5059875;28;20040;-88
2023/09/01 01:54:27;;;;;;;14.27;2.72;;;12.00;99.90;;;;;;5071176;28;20039;-87
2023/09/01 01:56:53;;;;;;;7.75;2.45;;;12.00;99.90;;;;;;5050976;28;20070;-87
2023/09/01 01:59:19;;;;;;;7.68;2.28;;;12.00;99.90;;;;;;5046683;28;20036;-88
2023/09/01 02:01:44;;;;;;;6.75;2.20;;;12.00;99.90;;;;;;5051011;28;20044;-88
2023/09/01 02:04:10;;;;;;;6.35;2.13;;;12.00;99.90;;;;;;5028179;28;20090;-88
2023/09/01 02:06:36;;;;;;;6.32;2.00;;;12.00;99.90;;;;;;5030504;28;20513;-88
2023/09/01 02:09:03;;;;;;;6.65;2.25;;;12.00;99.90;;;;;;5027427;28;20040;-88
2023/09/01 02:11:29;;;;;;;6.53;2.08;;;12.00;99.90;;;;;;5030897;28;20090;-88
2023/09/01 02:13:56;;;;;;;9.43;2.40;;;12.00;99.90;;;;;;5046655;28;20052;-88
2023/09/01 02:16:25;;;;;;;7.20;2.20;;;12.00;99.90;;;;;;5054599;28;20032;-88
2023/09/01 02:18:50;;;;;;;7.38;2.33;;;12.00;99.90;;;;;;5054783;28;20036;-88
2023/09/01 02:21:20;;;;;;;6.85;2.33;;;12.00;99.90;;;;;;5020281;28;20036;-88
2023/09/01 02:23:47;;;;;;;7.15;2.40;;;11.90;99.90;;;;;;5046161;28;20064;-88
2023/09/01 02:26:18;;;;;;;5.93;2.08;;;11.90;99.90;;;;;;5034374;28;20490;-87
2023/09/01 02:28:43;;;;;;;6.93;2.15;;;11.90;99.90;;;;;;5045992;28;20036;-88
2023/09/01 02:31:09;;;;;;;7.78;2.40;;;11.90;99.90;;;;;;5034417;28;20151;-88
2023/09/01 02:33:35;;;;;;;8.77;2.10;;;11.80;99.90;;;;;;5041809;28;20076;-87
2023/09/01 02:36:30;;;;;;;5.28;2.00;;;11.80;99.90;;;;;;5031409;28;20060;-88
2023/09/01 02:38:57;;;;;;;6.82;2.30;;;11.80;99.90;;;;;;5065042;28;20618;-87
2023/09/01 02:41:23;;;;;;;6.65;2.50;;;11.80;99.90;;;;;;5054168;28;20111;-88
2023/09/01 02:43:49;;;;;;;7.63;2.47;;;11.80;99.90;;;;;;5050557;28;20041;-88
2023/09/01 02:46:15;;;;;;;6.90;2.50;;;11.80;99.90;;;;;;5053431;28;20063;-88
2023/09/01 02:48:41;;;;;;;7.28;2.38;;;11.80;99.90;;;;;;5054123;28;20093;-88
2023/09/01 02:51:07;;;;;;;7.28;2.60;;;11.80;99.90;;;;;;5049473;28;20045;-87
2023/09/01 02:53:34;;;;;;;7.13;2.42;;;11.80;99.90;;;;;;5028667;28;20058;-88
2023/09/01 02:56:01;;;;;;;7.03;2.50;;;11.80;99.90;;;;;;5053826;28;20067;-88
2023/09/01 02:58:26;;;;;;;7.22;2.30;;;11.80;99.90;;;;;;5053964;28;20033;-88
2023/09/01 03:00:52;;;;;;;6.43;2.40;;;11.80;99.90;;;;;;5037038;28;20044;-88
2023/09/01 03:03:19;;;;;;;8.18;2.33;;;11.80;99.90;;;;;;5053360;28;20089;-88
2023/09/01 03:05:46;;;;;;;6.85;2.50;;;11.80;99.90;;;;;;5039887;28;20097;-88
2023/09/01 03:08:12;;;;;;;6.28;2.30;;;11.80;99.90;;;;;;5053815;28;20071;-88
2023/09/01 03:10:38;;;;;;;7.93;2.50;;;11.80;99.90;;;;;;5051042;28;20112;-88
2023/09/01 03:13:04;;;;;;;6.32;2.40;;;11.70;99.90;;;;;;5056489;28;20191;-88
2023/09/01 03:15:30;;;;;;;7.28;2.58;;;11.70;99.90;;;;;;5054896;28;20106;-88
2023/09/01 03:17:56;;;;;;;7.03;2.45;;;11.80;99.90;;;;;;5036632;28;20041;-87
2023/09/01 03:20:23;;;;;;;7.80;2.58;;;11.70;99.90;;;;;;5047908;28;20043;-87
2023/09/01 03:22:49;;;;;;;7.43;2.10;;;11.70;99.90;;;;;;5036719;28;20051;-87
2023/09/01 03:25:15;;;;;;;7.95;2.22;;;11.70;99.90;;;;;;5046379;28;20040;-88
2023/09/01 03:27:40;;;;;;;7.40;2.38;;;11.70;99.90;;;;;;5072787;28;20044;-88
2023/09/01 03:30:07;;;;;;;6.70;2.38;;;11.70;99.90;;;;;;5073358;28;20115;-88
2023/09/01 03:32:33;;;;;;;6.72;2.25;;;11.70;99.90;;;;;;5021323;28;20416;-87
2023/09/01 03:34:59;;;;;;;8.05;2.47;;;11.70;99.90;;;;;;5044390;28;20032;-88
2023/09/01 03:37:25;;;;;;;7.10;2.50;;;11.70;99.90;;;;;;5050800;28;20078;-87
2023/09/01 03:39:51;;;;;;;6.22;2.15;;;11.70;99.90;;;;;;5044163;28;20048;-88
2023/09/01 03:42:17;;;;;;;6.82;2.47;;;11.70;99.90;;;;;;5053554;28;20115;-88
2023/09/01 03:44:43;;;;;;;7.75;2.28;;;11.70;99.90;;;;;;5036361;28;20565;-87
2023/09/01 03:47:10;;;;;;;8.68;2.50;;;11.70;99.90;;;;;;5051699;28;20059;-88
2023/09/01 03:49:36;;;;;;;6.85;2.20;;;11.70;99.90;;;;;;5073153;28;20131;-88
2023/09/01 03:52:02;;;;;;;6.15;2.08;;;11.70;99.90;;;;;;5021778;28;20501;-88
2023/09/01 03:54:28;;;;;;;6.72;2.08;;;11.70;99.90;;;;;;5036507;28;20442;-88
2023/09/01 03:56:54;;;;;;;7.22;2.30;;;11.70;99.90;;;;;;5049393;28;20082;-88
2023/09/01 03:59:20;;;;;;;7.32;2.38;;;11.70;99.90;;;;;;5036731;28;20094;-88
2023/09/01 04:01:46;;;;;;;7.88;2.30;;;11.60;99.90;;;;;;5047753;28;20481;-88
2023/09/01 04:04:12;;;;;;;8.93;2.47;;;11.60;99.90;;;;;;5052509;28;20112;-88
2023/09/01 04:06:39;;;;;;;7.13;2.60;;;13.10;99.90;;;;;;5046098;28;20501;-87
2023/09/01 04:09:05;;;;;;;9.85;3.03;;;11.60;99.90;;;;;;5035952;28;20045;-88
2023/09/01 04:11:32;;;;;;;7.63;2.58;;;11.70;99.90;;;;;;5049152;28;20075;-88
2023/09/01 04:13:58;;;;;;;6.78;2.30;;;11.60;99.90;;;;;;5055721;28;20122;-88
2023/09/01 04:16:24;;;;;;;7.68;2.50;;;11.60;99.90;;;;;;5055693;28;20124;-88
2023/09/01 04:18:51;;;;;;;7.78;2.50;;;11.60;99.90;;;;;;5051974;28;20098;-87
2023/09/01 04:21:17;;;;;;;7.68;2.60;;;11.60;99.90;;;;;;5047261;28;20036;-88
2023/09/01 04:23:43;;;;;;;7.15;2.53;;;11.60;99.90;;;;;;5055692;28;20042;-87
2023/09/01 04:26:09;;;;;;;8.07;3.42;;;11.50;99.90;;;;;;5035399;28;20592;-87
2023/09/01 04:28:34;;;;;;;7.28;2.60;;;11.60;99.90;;;;;;5033351;28;21070;-87
2023/09/01 04:31:02;;;;;;;7.32;2.70;;;11.60;99.90;;;;;;5035676;28;20536;-88
2023/09/01 04:33:28;;;;;;;7.90;2.53;;;11.60;99.90;;;;;;5035640;28;20416;-88
2023/09/01 04:36:04;;;;;;;7.20;2.45;;;11.60;99.90;;;;;;5034325;28;20040;-88
2023/09/01 04:38:29;;;;;;;7.30;2.53;;;11.50;99.90;;;;;;5032784;28;20394;-88
2023/09/01 04:41:00;;;;;;;6.03;2.22;;;11.50;99.90;;;;;;5025786;28;20374;-88
2023/09/01 04:43:27;;;;;;;8.65;2.60;;;11.50;99.90;;;;;;5052261;28;20580;-88
2023/09/01 04:45:53;;;;;;;6.60;2.50;;;11.50;99.90;;;;;;5035667;28;20110;-88
2023/09/01 04:48:20;;;;;;;6.25;2.40;;;11.50;99.90;;;;;;5035048;28;20380;-88
2023/09/01 04:50:46;;;;;;;6.88;2.22;;;11.50;99.90;;;;;;5035226;28;20094;-88
2023/09/01 04:53:11;;;;;;;6.30;2.20;;;11.50;99.90;;;;;;5033280;28;20037;-87
2023/09/01 04:55:37;;;;;;;8.05;2.53;;;11.50;99.90;;;;;;5052122;28;20051;-88
2023/09/01 04:58:03;;;;;;;7.28;2.45;;;11.50;99.90;;;;;;5032233;28;20036;-88
2023/09/01 05:00:29;;;;;;;8.32;2.22;;;11.40;99.90;;;;;;5051923;28;20480;-87
2023/09/01 05:02:55;;;;;;;8.43;3.50;;;11.40;99.90;;;;;;5030339;28;20040;-88
2023/09/01 05:05:20;;;;;;;8.68;3.90;;;11.50;99.90;;;;;;5034912;28;20101;-88
2023/09/01 05:07:46;;;;;;;9.25;4.75;;;11.50;99.90;;;;;;5028547;28;20484;-88
2023/09/01 05:10:12;;;;;;;12.70;6.05;;;11.50;99.90;;;;;;5021600;28;20071;-88
2023/09/01 05:12:38;;;;;;;10.20;5.28;;;11.50;99.90;;;;;;5047405;28;20127;-88
2023/09/01 05:15:05;;;;;;;9.52;4.57;;;11.60;99.90;;;;;;5035150;28;20067;-88
2023/09/01 05:17:30;;;;;;;10.82;4.43;;;11.60;99.90;;;;;;5063343;28;20531;-88
2023/09/01 05:19:57;;;;;;;7.72;3.58;;;11.60;99.90;;;;;;5054979;28;20036;-87
2023/09/01 05:22:24;;;;;;;8.65;3.67;;;11.70;99.90;;;;;;5042710;28;20516;-88
2023/09/01 05:24:50;;;;;;;8.30;3.00;;;11.70;99.90;;;;;;5052737;28;20210;-87
2023/09/01 05:27:19;;;;;;;7.70;2.75;;;11.70;99.90;;;;;;5054767;28;20213;-88
2023/09/01 05:29:48;;;;;;;7.55;2.78;;;11.80;99.90;;;;;;5037847;28;20076;-87
2023/09/01 05:32:17;;;;;;;7.10;2.75;;;11.80;99.90;;;;;;5025683;28;20041;-87
2023/09/01 05:34:43;;;;;;;8.13;2.75;;;11.90;99.90;;;;;;5069582;28;20453;-88
2023/09/01 05:37:11;;;;;;;9.93;3.00;;;11.90;99.90;;;;;;5054502;28;20067;-88
2023/09/01 05:39:38;;;;;;;7.60;2.55;;;11.90;99.90;;;;;;5051364;28;20044;-88
2023/09/01 05:42:04;;;;;;;9.65;2.92;;;12.00;99.90;;;;;;5044747;28;20119;-88
2023/09/01 05:44:30;;;;;;;8.13;2.53;;;12.00;99.90;;;;;;5024598;28;20032;-88
2023/09/01 05:46:56;;;;;;;6.93;2.45;;;12.10;99.90;;;;;;5035029;28;20493;-88
2023/09/01 05:49:24;;;;;;;7.80;2.42;;;12.10;99.90;;;;;;5037069;28;20046;-88
2023/09/01 05:51:49;;;;;;;7.10;2.35;;;12.20;99.90;;;;;;5058280;28;20052;-88
2023/09/01 05:54:16;;;;;;;7.70;2.63;;;12.30;99.90;;;;;;5040445;28;20036;-88
2023/09/01 05:56:42;;;;;;;7.40;2.65;;;12.40;99.90;;;;;;5054824;28;20072;-88
2023/09/01 05:59:08;;;;;;;8.80;2.65;;;12.50;99.90;;;;;;5034131;28;20060;-88
2023/09/01 06:01:35;;;;;;;7.45;2.67;;;12.60;99.90;;;;;;5038264;28;20041;-88
2023/09/01 06:04:04;;;;;;;8.40;2.60;;;12.70;99.90;;;;;;5032402;28;20098;-88
2023/09/01 06:06:31;;;;;;;6.50;2.25;;;12.80;99.90;;;;;;5038539;28;20060;-88
2023/09/01 06:08:58;;;;;;;8.02;2.33;;;12.80;99.90;;;;;;5032306;28;20045;-88
2023/09/01 06:11:24;;;;;;;9.95;2.50;;;12.90;99.90;;;;;;5054774;28;20068;-88
2023/09/01 06:13:50;;;;;;;7.10;2.47;;;12.90;99.90;;;;;;5054646;28;20083;-88
2023/09/01 06:16:16;;;;;;;7.70;2.25;;;13.00;99.90;;;;;;5071565;28;20128;-88
2023/09/01 06:18:41;;;;;;;7.32;2.53;;;13.10;99.90;;;;;;5034844;28;20453;-88
2023/09/01 06:21:07;;;;;;;7.65;2.25;;;13.10;99.90;;;;;;5053033;28;20058;-88
2023/09/01 06:23:33;;;;;;;8.88;2.58;;;13.20;99.90;;;;;;5034644;28;20048;-88
2023/09/01 06:25:58;;;;;;;5.38;2.10;;;13.20;99.90;;;;;;5068501;28;20080;-88
2023/09/01 06:28:24;;;;;;;7.65;2.35;;;13.30;99.90;;;;;;5038021;28;20137;-88
2023/09/01 06:30:50;;;;;;;6.70;1.95;;;13.30;99.90;;;;;;5054391;28;20054;-88
2023/09/01 06:33:16;;;;;;;10.73;2.45;;;13.40;99.90;;;;;;5034166;28;20045;-88
2023/09/01 06:35:42;;;;;;;8.68;2.60;;;13.50;99.90;;;;;;5050375;28;20036;-88
2023/09/01 06:38:08;;;;;;;7.47;2.40;;;13.50;99.90;;;;;;5034396;28;20532;-88
2023/09/01 06:40:34;;;;;;;8.45;2.60;;;13.60;99.90;;;;;;5047070;28;20067;-88
2023/09/01 06:43:02;;;;;;;8.10;2.65;;;13.60;99.90;;;;;;5033846;28;20048;-88
2023/09/01 06:45:28;;;;;;;7.05;2.35;;;13.70;99.90;;;;;;5048736;28;20090;-88
2023/09/01 06:47:56;;;;;;;10.43;3.08;;;13.70;99.90;;;;;;5034225;28;20451;-88
2023/09/01 06:50:22;;;;;;;9.27;3.60;;;13.80;99.90;;;;;;5048142;28;20055;-87
2023/09/01 06:52:48;;;;;;;9.05;3.40;;;13.90;99.90;;;;;;5033852;28;20045;-87
2023/09/01 06:55:13;;;;;;;9.93;3.30;;;14.00;99.90;;;;;;5046879;28;20051;-87
2023/09/01 06:57:40;;;;;;;10.07;3.28;;;14.00;99.90;;;;;;5017352;28;20548;-88
2023/09/01 07:00:06;;;;;;;9.65;3.40;;;14.10;99.90;;;;;;5045528;28;20157;-88
2023/09/01 07:02:32;;;;;;;8.45;3.25;;;14.10;99.90;;;;;;5034009;28;20114;-88
2023/09/01 07:04:58;;;;;;;7.20;3.05;;;14.20;99.90;;;;;;5028516;28;20450;-87
2023/09/01 07:07:24;;;;;;;7.80;3.10;;;14.30;99.90;;;;;;5033268;28;20088;-88
2023/09/01 07:09:50;;;;;;;7.05;2.75;;;14.40;99.90;;;;;;5044171;28;20047;-87
2023/09/01 07:12:16;;;;;;;7.05;2.60;;;14.40;99.90;;;;;;5036304;28;20044;-88
2023/09/01 07:14:42;;;;;;;7.90;2.88;;;14.50;99.90;;;;;;5033769;28;20132;-88
2023/09/01 07:17:13;;;;;;;8.15;2.88;;;14.50;99.90;;;;;;5032174;28;20080;-88
2023/09/01 07:19:39;;;;;;;8.23;2.47;;;14.60;99.90;;;;;;5070252;28;20044;-88
2023/09/01 07:22:08;;;;;;;8.70;2.70;;;14.70;99.90;;;;;;5053257;28;20229;-88
2023/09/01 07:24:33;;;;;;;6.82;2.28;;;14.70;99.90;;;;;;5033643;28;20048;-88
2023/09/01 07:26:59;;;;;;;8.23;2.65;;;14.80;99.90;;;;;;5030131;28;20041;-89
2023/09/01 07:29:25;;;;;;;7.30;2.70;;;14.90;99.90;;;;;;5033367;28;20041;-88
2023/09/01 07:31:53;;;;;;;8.15;2.75;;;15.00;99.90;;;;;;5028176;28;20112;-88
2023/09/01 07:34:18;;;;;;;8.20;2.80;;;15.10;99.90;;;;;;5033220;28;20045;-88
2023/09/01 07:36:44;;;;;;;8.75;3.10;;;15.10;99.90;;;;;;5030858;28;20120;-87
2023/09/01 07:39:10;;;;;;;8.40;2.70;;;15.30;99.90;;;;;;5033261;28;20068;-87
2023/09/01 07:41:35;;;;;;;8.75;2.65;;;15.40;99.90;;;;;;5026356;28;20041;-88
2023/09/01 07:44:01;;;;;;;7.50;2.50;;;15.50;99.90;;;;;;5033035;28;20045;-87
2023/09/01 07:46:33;;;;;;;9.30;2.47;;;15.60;99.90;;;;;;5025704;28;20125;-88
2023/09/01 07:48:59;;;;;;;7.78;2.33;;;15.70;99.90;;;;;;5069635;28;20081;-88
2023/09/01 07:51:25;;;;;;;6.88;2.00;;;15.70;99.90;;;;;;5033244;28;20041;-87
2023/09/01 07:53:50;;;;;;;5.97;2.60;;;15.70;99.90;;;;;;5048581;28;20524;-88
2023/09/01 07:56:16;;;;;;;6.65;2.00;;;15.70;99.90;;;;;;5041123;28;20594;-87
2023/09/01 07:58:42;;;;;;;6.35;2.03;;;15.70;99.90;;;;;;5031067;28;20032;-88
2023/09/01 08:01:08;;;;;;;6.28;2.08;;;15.70;99.90;;;;;;5023809;28;20044;-88
2023/09/01 08:03:33;;;;;;;6.28;1.75;;;15.60;99.90;;;;;;5049692;28;20047;-88
2023/09/01 08:05:59;;;;;;;5.53;1.77;;;15.70;99.90;;;;;;5055386;28;20055;-87
2023/09/01 08:08:25;;;;;;;5.57;1.90;;;15.70;99.90;;;;;;5054554;28;20058;-88
2023/09/01 08:10:52;;;;;;;7.22;1.83;;;15.80;99.90;;;;;;5035708;28;20115;-88
2023/09/01 08:13:18;;;;;;;6.18;1.80;;;15.80;99.90;;;;;;5049123;28;20048;-87
2023/09/01 08:15:44;;;;;;;7.18;2.08;;;16.00;99.90;;;;;;5056009;28;20051;-88
2023/09/01 08:18:09;;;;;;;6.40;2.00;;;16.10;99.90;;;;;;5019976;28;20039;-88
2023/09/01 08:20:35;;;;;;;5.43;2.00;;;16.20;99.90;;;;;;5036161;28;20098;-87
2023/09/01 08:23:01;;;;;;;5.05;1.67;;;16.30;99.90;;;;;;5045647;28;20497;-87
2023/09/01 08:25:27;;;;;;;7.03;1.92;;;16.50;99.90;;;;;;5035401;28;20044;-88
2023/09/01 08:27:52;;;;;;;4.72;1.80;;;16.50;99.90;;;;;;5053926;28;20047;-87
2023/09/01 08:30:19;;;;;;;6.25;1.85;;;16.50;99.90;;;;;;5035577;28;20127;-88
2023/09/01 08:32:44;;;;;;;6.50;1.80;;;16.60;99.90;;;;;;5047187;28;20544;-87
2023/09/01 08:35:11;;;;;;;6.30;1.90;;;16.70;99.90;;;;;;5018998;28;20047;-87
2023/09/01 08:37:38;;;;;;;4.93;1.50;;;16.70;99.90;;;;;;5043640;28;20110;-87
2023/09/01 08:40:06;;;;;;;5.47;1.60;;;16.80;99.90;;;;;;5070157;28;20073;-87
2023/09/01 08:42:32;;;;;;;6.13;1.80;;;16.80;99.90;;;;;;5055313;28;20044;-88
2023/09/01 08:44:59;;;;;;;6.68;1.70;;;16.90;99.90;;;;;;5019026;28;20048;-88
2023/09/01 08:47:27;;;;;;;5.05;1.67;;;16.90;99.90;;;;;;5026322;28;20040;-88
2023/09/01 08:49:53;;;;;;;4.45;1.73;;;17.00;99.90;;;;;;5062487;28;20047;-87
2023/09/01 08:52:19;;;;;;;5.97;1.90;;;17.00;99.90;;;;;;5044877;28;20492;-88
2023/09/01 08:54:46;;;;;;;5.93;1.70;;;17.00;99.90;;;;;;5071077;28;20072;-87
2023/09/01 08:57:12;;;;;;;7.53;2.00;;;17.10;99.90;;;;;;5051846;28;20428;-88
2023/09/01 08:59:38;;;;;;;6.30;1.90;;;17.10;99.90;;;;;;5033159;28;20504;-87
2023/09/01 09:02:07;;;;;;;5.45;1.75;;;17.10;99.90;;;;;;5035463;28;20040;-87
2023/09/01 09:04:34;;;;;;;6.93;1.90;;;17.10;99.90;;;;;;5050506;28;20036;-88
2023/09/01 09:07:14;;;;;;;5.55;1.75;;;17.10;99.90;;;;;;5054614;28;20059;-87
2023/09/01 09:09:54;;;;;;;6.72;2.20;;;17.20;99.90;;;;;;5054799;28;20040;-87
2023/09/01 09:12:22;;;;;;;7.82;2.15;;;17.30;99.90;;;;;;5071637;28;20132;-88
2023/09/01 09:14:52;;;;;;;6.38;2.05;;;17.30;99.90;;;;;;5055029;28;20096;-88
2023/09/01 09:17:22;;;;;;;6.57;2.17;;;17.30;99.90;;;;;;5071892;28;20513;-88
2023/09/01 09:19:54;;;;;;;6.07;1.80;;;17.30;99.90;;;;;;5033641;28;20113;-88
2023/09/01 09:22:21;;;;;;;7.15;1.98;;;17.30;99.90;;;;;;5047613;28;20079;-87
2023/09/01 09:24:47;;;;;;;5.97;1.75;;;17.30;99.90;;;;;;5059472;28;20051;-88
2023/09/01 09:27:17;;;;;;;3.85;1.40;;;17.30;99.90;;;;;;5058798;28;20131;-87
2023/09/01 09:29:45;;;;;;;5.78;1.67;;;17.30;99.90;;;;;;5055389;28;20040;-87
2023/09/01 09:32:21;;;;;;;5.78;1.90;;;17.30;99.90;;;;;;5029434;28;20033;-87
2023/09/01 09:35:10;;;;;;;6.63;1.70;;;17.30;99.90;;;;;;5037646;28;20421;-88
2023/09/01 09:37:37;;;;;;;6.03;1.60;;;17.30;99.90;;;;;;5046032;28;20044;-88
2023/09/01 09:40:14;;;;;;;5.10;1.70;;;17.30;99.90;;;;;;5072408;28;20378;-88
2023/09/01 09:42:43;;;;;;;5.65;1.70;;;17.30;99.90;;;;;;5053315;28;20041;-88
2023/09/01 09:45:24;;;;;;;4.55;1.60;;;17.30;99.90;;;;;;5058772;28;20048;-88
2023/09/01 09:47:50;;;;;;;5.43;1.70;;;17.40;99.90;;;;;;5058580;28;20050;-88
2023/09/01 09:50:20;;;;;;;6.18;1.90;;;17.50;99.90;;;;;;5058763;28;20058;-88
2023/09/01 09:52:49;;;;;;;7.03;2.00;;;17.50;99.90;;;;;;5052401;28;20036;-88
2023/09/01 09:55:26;;;;;;;7.38;2.00;;;17.60;99.90;;;;;;5065664;28;20284;-88
2023/09/01 09:58:01;;;;;;;5.70;1.73;;;17.50;99.90;;;;;;5058309;28;20039;-88
2023/09/01 10:00:28;;;;;;;5.28;1.65;;;17.50;99.90;;;;;;5058482;28;20046;-88
2023/09/01 10:02:59;;;;;;;5.05;1.77;;;17.60;99.90;;;;;;5071296;28;20045;-88
2023/09/01 10:05:35;;;;;;;6.78;1.73;;;17.60;99.90;;;;;;5050410;28;20119;-88
2023/09/01 10:08:06;;;;;;;4.68;1.60;;;17.60;99.90;;;;;;5053971;28;20063;-89
2023/09/01 10:10:35;;;;;;;3.65;1.40;;;17.60;99.90;;;;;;5057959;28;20528;-87
2023/09/01 10:13:06;;;;;;;4.00;1.52;;;17.60;99.90;;;;;;5037638;28;20037;-89
2023/09/01 10:15:33;;;;;;;5.63;1.77;;;17.60;99.90;;;;;;5049973;28;20113;-88
2023/09/01 10:18:08;;;;;;;5.30;1.60;;;17.60;99.90;;;;;;5057691;28;20043;-88
2023/09/01 10:20:36;;;;;;;5.40;1.70;;;17.60;99.90;;;;;;5058708;28;20063;-87
2023/09/01 10:23:05;;;;;;;5.35;1.60;;;17.60;99.90;;;;;;5033728;28;20039;-88
2023/09/01 10:25:31;;;;;;;5.90;1.67;;;17.60;99.90;;;;;;5069530;28;20476;-88
2023/09/01 10:28:18;;;;;;;6.60;1.75;;;17.70;99.90;;;;;;5057807;28;20054;-88
2023/09/01 10:30:46;;;;;;;5.50;1.80;;;17.70;99.90;;;;;;5057982;28;20409;-87
2023/09/01 10:33:16;;;;;;;5.82;1.77;;;17.80;99.90;;;;;;5043190;28;20036;-88
2023/09/01 10:35:47;;;;;;;6.93;1.80;;;17.90;99.90;;;;;;5053574;28;20105;-88
2023/09/01 10:38:19;;;;;;;4.65;1.65;;;18.10;99.90;;;;;;5057634;28;20393;-88
2023/09/01 10:40:54;;;;;;;6.05;1.65;;;18.30;99.90;;;;;;5054398;28;20036;-88
2023/09/01 10:43:35;;;;;;;6.63;1.90;;;18.40;99.90;;;;;;5045236;28;20048;-88
2023/09/01 10:46:16;;;;;;;4.75;1.70;;;18.50;99.90;;;;;;5057185;28;20500;-88
2023/09/01 10:48:57;;;;;;;4.13;1.58;;;18.50;99.90;;;;;;5071372;28;20040;-88
2023/09/01 10:51:34;;;;;;;6.18;1.60;;;18.50;99.90;;;;;;5074388;28;20179;-87
2023/09/01 10:54:20;;;;;;;5.75;1.60;;;18.50;99.90;;;;;;5053847;28;20051;-88
2023/09/01 10:57:04;;;;;;;4.35;1.63;;;18.70;99.90;;;;;;5050079;28;20117;-87
2023/09/01 10:59:30;;;;;;;6.07;1.70;;;18.70;99.90;;;;;;5045535;28;20044;-87
2023/09/01 11:01:56;;;;;;;5.32;1.70;;;18.90;99.90;;;;;;5054120;28;20025;-87
2023/09/01 11:04:21;;;;;;;6.93;1.80;;;19.00;99.90;;;;;;5053681;28;20524;-89
2023/09/01 11:06:56;;;;;;;8.20;1.88;;;19.10;99.90;;;;;;5060784;28;20502;-88
2023/09/01 11:09:34;;;;;;;6.45;1.90;;;19.20;99.90;;;;;;5056979;28;20060;-88
2023/09/01 11:12:07;;;;;;;5.88;1.80;;;19.20;99.90;;;;;;5056919;28;20040;-88
2023/09/01 11:14:33;;;;;;;;;;;19.30;99.90;;;;;;5043914;28;20393;-89
2023/09/01 11:17:00;;;;;;;4.32;1.50;;;19.20;99.90;;;;;;5036092;28;19916;-88
2023/09/01 11:19:26;;;;;;;7.32;1.88;;;19.30;99.90;;;;;;5064677;28;20075;-88
2023/09/01 11:21:52;;;;;;;4.72;1.60;;;19.40;99.90;;;;;;5052380;28;20093;-88
2023/09/01 11:24:21;;;;;;;6.35;1.90;;;19.60;99.90;;;;;;5037085;28;20401;-88
2023/09/01 11:26:49;;;;;;;5.55;1.73;;;19.70;99.90;;;;;;5033132;28;20083;-88
2023/09/01 11:29:14;;;;;;;7.15;1.80;;;19.80;99.90;;;;;;5041586;28;20505;-89
2023/09/01 11:31:42;;;;;;;5.32;1.80;;;19.80;99.90;;;;;;5051455;28;20051;-88
2023/09/01 11:34:08;;;;;;;6.60;1.90;;;19.80;99.90;;;;;;5053530;28;20036;-89
2023/09/01 11:36:43;;;;;;;7.07;1.90;;;19.80;99.90;;;;;;5047174;28;20041;-88
2023/09/01 11:39:09;;;;;;;6.30;1.80;;;19.80;99.90;;;;;;5056743;28;20058;-88
2023/09/01 11:41:35;;;;;;;4.78;1.60;;;19.80;99.90;;;;;;5020879;28;20552;-89
2023/09/01 11:44:02;;;;;;;6.68;1.80;;;19.80;99.90;;;;;;5056693;28;20040;-89
2023/09/01 11:46:32;;;;;;;5.30;1.70;;;19.80;99.90;;;;;;5019762;28;20072;-90
2023/09/01 11:48:58;;;;;;;5.68;1.65;;;19.90;99.90;;;;;;5091344;28;20043;-90
2023/09/01 11:51:37;;;;;;;6.30;1.88;;;19.90;99.90;;;;;;5026204;28;20036;-90
2023/09/01 11:54:03;;;;;;;4.70;1.48;;;19.90;99.90;;;;;;5044140;28;20172;-88
2023/09/01 11:56:29;;;;;;;4.85;1.63;;;19.80;99.90;;;;;;5039875;28;20044;-88
2023/09/01 11:58:56;;;;;;;4.82;1.50;;;19.80;99.90;;;;;;5036278;28;20314;-88
2023/09/01 12:01:35;;;;;;;7.53;1.90;;;19.90;99.90;;;;;;5029616;28;20047;-88
2023/09/01 12:04:05;;;;;;;6.05;1.92;;;20.00;99.90;;;;;;5044312;28;20073;-89
2023/09/01 12:06:31;;;;;;;4.95;1.77;;;20.00;99.90;;;;;;5037468;28;20505;-88
2023/09/01 12:09:11;;;;;;;6.03;1.90;;;20.00;99.90;;;;;;5036214;28;20052;-87
2023/09/01 12:11:55;;;;;;;4.90;1.83;;;20.20;99.90;;;;;;5052081;28;20410;-89
2023/09/01 12:14:26;;;;;;;7.00;1.95;;;20.20;99.90;;;;;;5052616;28;20041;-88
2023/09/01 12:16:55;;;;;;;5.90;1.85;;;20.30;99.90;;;;;;5071140;28;20044;-90
2023/09/01 12:19:25;;;;;;;7.20;1.90;;;20.40;99.90;;;;;;5012056;28;20028;-88
2023/09/01 12:21:52;;;;;;;8.10;2.10;;;20.30;99.90;;;;;;5036242;28;20182;-89
2023/09/01 12:24:18;;;;;;;6.18;2.05;;;20.30;99.90;;;;;;5030417;28;20044;-89
2023/09/01 12:26:43;;;;;;;7.95;2.40;;;20.30;99.90;;;;;;5024802;28;21070;-89
2023/09/01 12:29:09;;;;;;;7.32;2.10;;;20.20;99.90;;;;;;5058224;28;20512;-89
2023/09/01 12:31:35;;;;;;;9.75;2.22;;;20.00;99.90;;;;;;5031124;28;20045;-90
2023/09/01 12:34:00;;;;;;;7.78;2.20;;;20.00;99.90;;;;;;5044133;28;20036;-90
2023/09/01 12:36:26;;;;;;;9.35;2.30;;;20.00;99.90;;;;;;5056837;28;20039;-88
2023/09/01 12:38:52;;;;;;;9.52;2.95;;;20.10;99.90;;;;;;5047282;28;20037;-88
2023/09/01 12:41:18;;;;;;;7.47;2.80;;;20.00;99.90;;;;;;5031238;28;20131;-88
2023/09/01 12:43:44;;;;;;;10.68;2.70;;;19.90;99.90;;;;;;5010742;28;20174;-88
2023/09/01 12:46:09;;;;;;;8.82;2.60;;;19.80;99.90;;;;;;5026929;28;20040;-89
2023/09/01 12:48:35;;;;;;;8.07;2.38;;;19.90;99.90;;;;;;5034427;28;20574;-88
2023/09/01 12:51:01;;;;;;;9.10;3.03;;;19.90;99.90;;;;;;5039682;28;20047;-88